Meteo Giornale » Osservazioni meteo Italia » Roma-Ciampino

ore: 14:50 - Osservazioni Meteo Roma-Ciampino
Lat. 41° 47' N Lon. 12° 35' E Alt. 129 metri s.l.m.

nuvoloso Europe/Rome

27 °C

Nuvoloso

Temp. 24 Ore

18 °C

29 °C

Sud-Ovest

13 Km/h

Dew point 15 °C

Umidità 47 %

Visibilità  10 Km

Il sole sorge alle ore 05:32

Il sole tramonta alle ore 20:48

Data e Ora Cielo e Fenomeni T °C DP °C Um. % Pres. hPa Vis. km Vento km/h
Oggi h: 14:50 nuvoloso Nuvoloso 27 15 47 1013 10 SO 13
Oggi h: 14:20 coperto_pioggia Pioggia Debole 29 15 42 1012 10 S/SO 13
Oggi h: 13:50 nuvoloso Nuvoloso 28 15 45 1013 10 S/SO 7.4
Oggi h: 13:20 poco_nuvoloso Poco Nuvoloso 29 15 42 1013 10 N 11.1
Oggi h: 12:50 sereno Sereno 28 14 42 1013 10 N/NE 13
Oggi h: 12:20 sereno Sereno 28 14 42 1013 10 N/NO 11.1
Oggi h: 11:50 sereno Sereno 28 14 42 1013 10 N/NO 11.1
Oggi h: 11:20 sereno Sereno 27 14 44 1013 10 N/NE 11.1
Oggi h: 10:50 sereno Sereno 26 14 47 1013 10 N/NE 13
Oggi h: 10:20 sereno Sereno 25 15 53 1013 10 N 14.8
Oggi h: 09:50 sereno Sereno 24 15 57 1013 10 N 14.8
Oggi h: 09:20 sereno Sereno 23 15 60 1013 10 N/NE 14.8
Oggi h: 08:50 sereno Sereno 23 15 60 1013 10 N 13
Oggi h: 08:20 sereno Sereno 21 16 73 1013 10 N/NE 9.3
Oggi h: 07:50 sereno Sereno 20 16 77 1013 10 N 9.3
Oggi h: 07:20 sereno Sereno 20 16 77 1013 10 N/NE 9.3
Oggi h: 06:50 sereno Sereno 19 16 82 1013 10 N 5.5
Oggi h: 06:20 sereno Sereno 19 15 77 1013 10 N 5.5
Oggi h: 05:50 sereno Sereno 18 15 82 1013 10 N 3.7
Oggi h: 05:20 sereno Sereno 19 15 77 1013 10 N 3.7
Oggi h: 04:50 sereno Sereno 19 15 77 1012 10 N 1.8
Oggi h: 04:20 sereno Sereno 19 15 77 1012 10 N 1.8
Oggi h: 03:50 sereno Sereno 19 15 77 1012 10 N 1.8
Oggi h: 03:20 sereno Sereno 19 15 77 1013 10 N 0
Oggi h: 02:50 sereno Sereno 20 15 72 1013 10 N 1.8
Oggi h: 02:20 sereno Sereno 20 15 72 1013 10 E 7.4
Oggi h: 01:50 sereno Sereno 20 15 72 1013 10 E 7.4
Oggi h: 01:20 sereno Sereno 21 15 68 1013 10 N 3.7
Oggi h: 00:50 sereno Sereno 21 15 68 1013 10 E/NE 9.3
Oggi h: 00:20 sereno Sereno 21 15 68 1013 10 E 9.3
Ieri h: 23:50 sereno Sereno 21 15 68 1013 10 E 9.3
Ieri h: 23:20 sereno Sereno 22 15 64 1013 10 E 11.1
Ieri h: 22:50 sereno Sereno 22 16 68 1013 10 E 7.4
Ieri h: 22:20 sereno Sereno 22 16 68 1013 10 E 7.4
Ieri h: 21:50 sereno Sereno 23 16 64 1012 10 SE 7.4
Ieri h: 21:20 sereno Sereno 23 16 64 1012 10 S/SE 7.4
Ieri h: 20:50 sereno Sereno 24 17 64 1012 10 S 9.3
Ieri h: 20:20 sereno Sereno 25 16 57 1012 10 S 14.8
Ieri h: 19:50 poco_nuvoloso Poco Nuvoloso 25 17 61 1012 10 S 16.7
Ieri h: 19:20 poco_nuvoloso Poco Nuvoloso 26 17 57 1012 10 S/SE 14.8
Ieri h: 18:50 poco_nuvoloso Poco Nuvoloso 27 17 54 1011 10 S 13
Ieri h: 18:20 coperto_pioggia Pioggia Debole 26 17 57 1011 10 N 11.1
Ieri h: 17:50 nuvoloso Rovescio nelle Vicinanze 29 15 42 1011 10 O/SO 14.8
Ieri h: 17:20 nuvoloso_temporali Temporale nelle Vicinanze 29 15 42 1011 10 O/SO 18.5
Ieri h: 16:50 poco_nuvoloso Poco Nuvoloso 29 15 42 1011 10 O/SO 18.5
Ieri h: 16:20 poco_nuvoloso Poco Nuvoloso 29 15 42 1011 10 O 20.3
Ieri h: 15:50 poco_nuvoloso Poco Nuvoloso 29 15 42 1011 10 O 18.5